createdAt,value
2023-12-30T00:02:10.862Z,0.83
2023-12-30T00:04:43.650Z,1.10
2023-12-30T00:07:16.420Z,0.80
2023-12-30T00:09:49.320Z,0.90
2023-12-30T00:12:22.924Z,0.83
2023-12-30T00:14:55.617Z,1.10
2023-12-30T00:17:29.658Z,1.20
2023-12-30T00:20:02.588Z,1.03
2023-12-30T00:22:36.181Z,1.40
2023-12-30T00:25:09.547Z,0.97
2023-12-30T00:27:42.268Z,1.30
2023-12-30T00:30:15.317Z,1.20
2023-12-30T00:32:52.567Z,0.93
2023-12-30T00:35:26.695Z,1.07
2023-12-30T00:37:59.362Z,1.30
2023-12-30T00:40:32.007Z,1.07
2023-12-30T00:43:05.265Z,1.50
2023-12-30T00:45:39.043Z,1.47
2023-12-30T00:48:13.251Z,1.57
2023-12-30T00:50:45.933Z,1.30
2023-12-30T00:53:19.780Z,1.20
2023-12-30T00:55:52.628Z,0.90
2023-12-30T00:58:25.419Z,1.20
2023-12-30T01:00:58.268Z,1.27
2023-12-30T01:03:32.506Z,1.17
2023-12-30T01:06:05.385Z,1.03
2023-12-30T01:08:38.081Z,1.03
2023-12-30T01:11:10.769Z,1.30
2023-12-30T01:13:43.727Z,1.23
2023-12-30T01:16:21.418Z,1.60
2023-12-30T01:18:58.711Z,1.10
2023-12-30T01:21:31.425Z,1.20
2023-12-30T01:24:04.352Z,1.20
2023-12-30T01:26:39.191Z,1.30
2023-12-30T01:29:11.907Z,1.27
2023-12-30T01:31:44.759Z,1.10
2023-12-30T01:34:18.999Z,1.20
2023-12-30T01:36:52.322Z,1.37
2023-12-30T01:39:25.212Z,1.17
2023-12-30T01:41:57.908Z,1.10
2023-12-30T01:44:30.724Z,0.90
2023-12-30T01:47:06.115Z,1.00
2023-12-30T01:49:40.289Z,1.00
2023-12-30T01:52:13.272Z,1.30
2023-12-30T01:54:46.102Z,1.10
2023-12-30T01:57:18.932Z,1.13
2023-12-30T01:59:52.407Z,1.33
2023-12-30T02:02:25.555Z,0.90
2023-12-30T02:04:59.991Z,1.30
2023-12-30T02:07:32.826Z,1.20
2023-12-30T02:10:05.933Z,1.10
2023-12-30T02:12:38.538Z,1.37
2023-12-30T02:15:15.194Z,1.50
2023-12-30T02:17:48.984Z,1.20
2023-12-30T02:20:23.246Z,1.30
2023-12-30T02:22:57.295Z,1.20
2023-12-30T02:25:30.208Z,1.27
2023-12-30T02:28:03.891Z,1.60
2023-12-30T02:30:36.695Z,1.50
2023-12-30T02:33:09.716Z,1.90
2023-12-30T02:38:19.898Z,1.60
2023-12-30T02:40:52.704Z,2.23
2023-12-30T02:43:28.115Z,1.60
2023-12-30T02:46:01.731Z,1.40
2023-12-30T02:48:34.530Z,1.43
2023-12-30T02:51:07.172Z,1.40
2023-12-30T02:53:41.320Z,1.30
2023-12-30T02:56:20.705Z,1.30
2023-12-30T02:58:58.144Z,1.30
2023-12-30T03:01:31.891Z,1.30
2023-12-30T03:04:04.892Z,1.30
2023-12-30T03:06:37.833Z,1.23
2023-12-30T03:09:12.067Z,1.40
2023-12-30T03:11:45.017Z,1.23
2023-12-30T03:14:18.005Z,1.27
2023-12-30T03:16:50.754Z,1.30
2023-12-30T03:19:32.934Z,1.37
2023-12-30T03:22:06.403Z,1.10
2023-12-30T03:24:40.847Z,1.37
2023-12-30T03:27:13.595Z,1.13
2023-12-30T03:29:46.325Z,1.17
2023-12-30T03:32:18.976Z,1.00
2023-12-30T03:34:51.741Z,1.00
2023-12-30T03:37:24.645Z,1.07
2023-12-30T03:40:01.334Z,1.10
2023-12-30T03:42:34.204Z,1.20
2023-12-30T03:45:09.828Z,1.40
2023-12-30T03:47:45.620Z,1.10
2023-12-30T03:50:18.985Z,1.30
2023-12-30T03:52:51.848Z,1.20
2023-12-30T03:55:26.836Z,1.00
2023-12-30T03:57:59.582Z,1.37
2023-12-30T04:00:33.261Z,1.10
2023-12-30T04:03:08.568Z,1.40
2023-12-30T04:05:41.827Z,1.57
2023-12-30T04:08:14.593Z,0.70
2023-12-30T04:10:51.040Z,1.23
2023-12-30T04:13:23.865Z,1.27
2023-12-30T04:15:56.568Z,1.20
2023-12-30T04:18:29.307Z,1.20
2023-12-30T04:21:04.841Z,1.23
2023-12-30T04:23:37.459Z,0.90
2023-12-30T04:26:13.804Z,1.50
2023-12-30T04:28:48.556Z,1.10
2023-12-30T04:31:22.176Z,1.30
2023-12-30T04:33:54.958Z,1.20
2023-12-30T04:36:27.766Z,1.17
2023-12-30T04:39:03.321Z,1.23
2023-12-30T04:41:41.678Z,1.00
2023-12-30T04:44:15.411Z,1.13
2023-12-30T04:46:49.305Z,1.23
2023-12-30T04:49:22.071Z,1.10
2023-12-30T04:51:54.876Z,1.53
2023-12-30T04:54:27.636Z,1.33
2023-12-30T04:57:01.825Z,1.20
2023-12-30T04:59:37.123Z,1.20
2023-12-30T05:02:12.263Z,1.13
2023-12-30T05:04:44.942Z,1.33
2023-12-30T05:07:18.900Z,1.40
2023-12-30T05:09:51.752Z,1.10
2023-12-30T05:12:26.545Z,1.37
2023-12-30T05:14:59.279Z,1.10
2023-12-30T05:17:34.043Z,1.17
2023-12-30T05:20:11.653Z,1.03
2023-12-30T05:22:44.416Z,0.83
2023-12-30T05:25:17.597Z,1.03
2023-12-30T05:27:51.604Z,1.00
2023-12-30T05:30:25.214Z,1.17
2023-12-30T05:32:58.041Z,1.00
2023-12-30T05:35:33.378Z,0.97
2023-12-30T05:38:08.980Z,1.10
2023-12-30T05:40:42.037Z,1.20
2023-12-30T05:43:16.008Z,0.93
2023-12-30T05:45:48.712Z,1.37
2023-12-30T05:48:24.052Z,1.03
2023-12-30T05:51:02.069Z,1.00
2023-12-30T05:53:34.834Z,0.90
2023-12-30T05:56:16.645Z,1.13
2023-12-30T05:58:50.794Z,0.90
2023-12-30T06:01:23.743Z,1.20
2023-12-30T06:03:57.671Z,1.27
2023-12-30T06:06:32.908Z,0.90
2023-12-30T06:09:09.249Z,1.20
2023-12-30T06:11:42.787Z,0.90
2023-12-30T06:14:18.945Z,0.90
2023-12-30T06:16:53.776Z,0.93
2023-12-30T06:19:27.449Z,1.47
2023-12-30T06:22:00.495Z,0.93
2023-12-30T06:24:33.236Z,1.23
2023-12-30T06:27:06.046Z,0.93
2023-12-30T06:29:45.153Z,1.20
2023-12-30T06:32:18.147Z,1.10
2023-12-30T06:34:51.765Z,1.20
2023-12-30T06:37:24.475Z,1.40
2023-12-30T06:39:57.402Z,1.03
2023-12-30T06:42:34.275Z,1.30
2023-12-30T06:45:10.122Z,1.20
2023-12-30T06:47:44.187Z,1.60
2023-12-30T06:50:19.575Z,1.50
2023-12-30T06:52:56.141Z,1.13
2023-12-30T06:55:35.141Z,1.20
2023-12-30T06:58:11.758Z,1.30
2023-12-30T07:00:45.992Z,1.30
2023-12-30T07:03:19.838Z,1.43
2023-12-30T07:05:52.623Z,1.13
2023-12-30T07:08:25.524Z,1.30
2023-12-30T07:11:01.350Z,1.60
2023-12-30T07:13:34.036Z,1.30
2023-12-30T07:16:08.768Z,1.30
2023-12-30T07:18:41.782Z,1.20
2023-12-30T07:21:16.047Z,1.37
2023-12-30T07:23:51.416Z,1.40
2023-12-30T07:26:27.635Z,1.47
2023-12-30T07:29:00.561Z,1.20
2023-12-30T07:31:34.721Z,1.40
2023-12-30T07:34:07.562Z,1.30
2023-12-30T07:36:40.663Z,1.30
2023-12-30T07:39:14.386Z,2.90
2023-12-30T07:41:47.110Z,1.27
2023-12-30T07:44:20.176Z,1.00
2023-12-30T07:46:54.552Z,1.40
2023-12-30T07:49:27.587Z,1.60
2023-12-30T07:52:02.356Z,1.60
2023-12-30T07:54:35.303Z,1.40
2023-12-30T07:57:08.037Z,1.40
2023-12-30T07:59:40.801Z,1.67
2023-12-30T08:02:15.421Z,1.70
2023-12-30T08:04:50.425Z,1.40
2023-12-30T08:07:23.248Z,1.80
2023-12-30T08:09:55.936Z,1.73
2023-12-30T08:12:28.573Z,1.30
2023-12-30T08:15:03.220Z,1.50
2023-12-30T08:17:40.024Z,1.73
2023-12-30T08:20:13.015Z,1.60
2023-12-30T08:22:46.833Z,1.53
2023-12-30T08:25:19.607Z,1.50
2023-12-30T08:27:52.516Z,1.63
2023-12-30T08:30:25.592Z,1.77
2023-12-30T08:33:05.480Z,1.67
2023-12-30T08:35:39.413Z,1.60
2023-12-30T08:38:12.294Z,1.60
2023-12-30T08:40:45.178Z,1.60
2023-12-30T08:43:18.571Z,1.30
2023-12-30T08:45:52.121Z,1.43
2023-12-30T08:48:35.161Z,1.80
2023-12-30T08:51:07.911Z,1.90
2023-12-30T08:53:43.258Z,1.77
2023-12-30T08:56:16.100Z,1.47
2023-12-30T08:58:49.753Z,1.43
2023-12-30T09:01:26.789Z,1.87
2023-12-30T09:04:01.952Z,1.20
2023-12-30T09:06:35.726Z,1.37
2023-12-30T09:09:09.317Z,1.57
2023-12-30T09:11:47.448Z,1.90
2023-12-30T09:14:20.854Z,1.97
2023-12-30T09:16:55.526Z,1.60
2023-12-30T09:19:29.913Z,1.50
2023-12-30T09:22:06.679Z,1.57
2023-12-30T09:24:39.407Z,2.10
2023-12-30T09:27:15.672Z,1.67
2023-12-30T09:29:50.701Z,2.30
2023-12-30T09:32:24.402Z,2.00
2023-12-30T09:35:00.212Z,1.73
2023-12-30T09:37:33.164Z,1.90
2023-12-30T09:40:06.869Z,2.00
2023-12-30T09:42:40.083Z,1.93
2023-12-30T09:45:14.313Z,1.70
2023-12-30T09:47:47.987Z,1.97
2023-12-30T09:50:22.439Z,1.90
2023-12-30T09:52:56.711Z,1.87
2023-12-30T09:55:32.835Z,2.43
2023-12-30T09:58:07.199Z,1.67
2023-12-30T10:00:43.655Z,2.23
2023-12-30T10:03:17.194Z,1.67
2023-12-30T10:05:52.363Z,1.70
2023-12-30T10:08:25.557Z,2.20
2023-12-30T10:10:58.941Z,2.00
2023-12-30T10:13:37.558Z,2.20
2023-12-30T10:16:10.485Z,2.10
2023-12-30T10:18:43.382Z,2.40
2023-12-30T10:21:29.208Z,2.10
2023-12-30T10:24:05.476Z,2.47
2023-12-30T10:26:40.987Z,1.57
2023-12-30T10:29:14.001Z,2.23
2023-12-30T10:31:59.669Z,2.10
2023-12-30T10:34:33.281Z,1.90
2023-12-30T10:37:09.195Z,1.90
2023-12-30T10:39:43.832Z,1.93
2023-12-30T10:42:17.520Z,2.47
2023-12-30T10:44:50.268Z,1.77
2023-12-30T10:47:25.266Z,2.90
2023-12-30T10:50:06.267Z,2.50
2023-12-30T10:52:46.025Z,2.27
2023-12-30T10:55:19.534Z,2.30
2023-12-30T10:57:56.601Z,1.67
2023-12-30T11:00:31.007Z,2.57
2023-12-30T11:03:05.149Z,1.90
2023-12-30T11:05:43.298Z,2.40
2023-12-30T11:08:19.082Z,3.00
2023-12-30T11:10:52.414Z,2.00
2023-12-30T11:13:26.241Z,2.00
2023-12-30T11:16:12.794Z,2.70
2023-12-30T11:18:49.497Z,2.47
2023-12-30T11:21:35.305Z,2.83
2023-12-30T11:24:11.008Z,2.07
2023-12-30T11:26:46.750Z,2.33
2023-12-30T11:29:21.378Z,2.87
2023-12-30T11:31:56.129Z,2.17
2023-12-30T11:34:30.552Z,2.23
2023-12-30T11:37:04.402Z,1.80
2023-12-30T11:39:41.944Z,1.93
2023-12-30T11:42:15.869Z,2.50
2023-12-30T11:44:55.457Z,2.60
2023-12-30T11:47:30.282Z,2.53
2023-12-30T11:50:03.953Z,2.43
2023-12-30T11:52:37.973Z,1.77
2023-12-30T11:55:12.263Z,2.27
2023-12-30T11:57:46.981Z,2.57
2023-12-30T12:00:21.367Z,2.00
2023-12-30T12:02:55.378Z,2.20
2023-12-30T12:05:28.056Z,2.47
2023-12-30T12:08:00.805Z,2.50
2023-12-30T12:10:38.833Z,2.63
2023-12-30T12:13:24.363Z,2.27
2023-12-30T12:15:58.048Z,2.27
2023-12-30T12:18:31.268Z,2.40
2023-12-30T12:21:05.605Z,2.10
2023-12-30T12:23:38.267Z,2.20
2023-12-30T12:26:14.676Z,3.00
2023-12-30T12:28:47.458Z,2.30
2023-12-30T12:31:20.164Z,2.73
2023-12-30T12:33:53.033Z,2.30
2023-12-30T12:36:25.922Z,2.70
2023-12-30T12:38:58.837Z,2.93
2023-12-30T12:41:34.254Z,2.30
2023-12-30T12:44:07.151Z,2.77
2023-12-30T12:46:40.197Z,2.37
2023-12-30T12:49:15.191Z,2.87
2023-12-30T12:51:47.898Z,2.30
2023-12-30T12:54:20.638Z,2.37
2023-12-30T12:56:57.613Z,3.00
2023-12-30T12:59:32.267Z,2.93
2023-12-30T13:02:05.272Z,3.20
2023-12-30T13:04:38.609Z,3.00
2023-12-30T13:09:54.833Z,2.83
2023-12-30T13:12:29.362Z,3.10
2023-12-30T13:15:02.830Z,2.67
2023-12-30T13:17:38.458Z,2.47
2023-12-30T13:20:13.263Z,2.57
2023-12-30T13:22:46.112Z,2.33
2023-12-30T13:25:20.688Z,2.50
2023-12-30T13:27:57.194Z,2.40
2023-12-30T13:30:29.951Z,2.53
2023-12-30T13:33:08.542Z,2.53
2023-12-30T13:35:44.173Z,2.40
2023-12-30T13:38:21.275Z,1.60
2023-12-30T13:40:59.658Z,2.50
2023-12-30T13:43:34.095Z,2.53
2023-12-30T13:46:30.702Z,2.10
2023-12-30T13:49:17.564Z,2.60
2023-12-30T13:51:54.947Z,2.53
2023-12-30T13:54:28.015Z,2.60
2023-12-30T13:57:12.814Z,3.33
2023-12-30T13:59:47.250Z,2.80
2023-12-30T14:02:23.149Z,3.00
2023-12-30T14:04:59.119Z,2.60
2023-12-30T14:07:32.914Z,2.63
2023-12-30T14:10:07.886Z,2.97
2023-12-30T14:12:42.345Z,2.53
2023-12-30T14:15:20.062Z,2.87
2023-12-30T14:17:53.745Z,2.53
2023-12-30T14:20:27.068Z,2.87
2023-12-30T14:22:59.917Z,2.93
2023-12-30T14:25:33.332Z,2.97
2023-12-30T14:28:07.292Z,3.13
2023-12-30T14:30:42.449Z,2.40
2023-12-30T14:33:15.279Z,2.83
2023-12-30T14:35:48.125Z,2.93
2023-12-30T14:38:21.176Z,3.20
2023-12-30T14:40:54.597Z,2.80
2023-12-30T14:43:27.400Z,2.97
2023-12-30T14:46:01.854Z,2.53
2023-12-30T14:48:34.599Z,3.03
2023-12-30T14:51:08.392Z,2.87
2023-12-30T14:53:45.342Z,2.97
2023-12-30T14:56:23.697Z,3.30
2023-12-30T14:58:57.523Z,2.80
2023-12-30T15:01:31.865Z,2.90
2023-12-30T15:04:04.805Z,2.93
2023-12-30T15:06:37.584Z,3.03
2023-12-30T15:09:11.465Z,2.77
2023-12-30T15:11:44.520Z,3.10
2023-12-30T15:14:17.758Z,3.13
2023-12-30T15:16:52.409Z,3.37
2023-12-30T15:19:25.557Z,3.30
2023-12-30T15:22:00.581Z,3.50
2023-12-30T15:24:33.286Z,3.40
2023-12-30T15:27:06.378Z,3.57
2023-12-30T15:29:39.159Z,4.10
2023-12-30T15:32:13.436Z,3.53
2023-12-30T15:34:49.999Z,3.90
2023-12-30T15:37:22.765Z,3.70
2023-12-30T15:39:55.599Z,3.67
2023-12-30T15:42:28.353Z,3.27
2023-12-30T15:45:01.016Z,3.57
2023-12-30T15:47:37.240Z,3.70
2023-12-30T15:50:15.358Z,3.20
2023-12-30T15:52:48.897Z,3.70
2023-12-30T15:55:21.709Z,3.93
2023-12-30T15:57:54.456Z,5.07
2023-12-30T16:00:29.078Z,5.30
2023-12-30T16:03:03.659Z,5.30
2023-12-30T16:05:36.985Z,4.83
2023-12-30T16:08:10.801Z,4.60
2023-12-30T16:10:43.794Z,5.10
2023-12-30T16:13:19.098Z,4.70
2023-12-30T16:15:53.914Z,4.67
2023-12-30T16:18:29.346Z,4.23
2023-12-30T16:21:02.205Z,5.03
2023-12-30T16:23:39.035Z,4.47
2023-12-30T16:26:12.188Z,6.20
2023-12-30T16:28:48.320Z,5.23
2023-12-30T16:31:23.011Z,5.57
2023-12-30T16:33:57.409Z,6.23
2023-12-30T16:36:30.301Z,5.73
2023-12-30T16:39:03.019Z,4.97
2023-12-30T16:41:36.024Z,5.90
2023-12-30T16:44:09.464Z,4.63
2023-12-30T16:46:43.242Z,6.37
2023-12-30T16:49:17.520Z,6.10
2023-12-30T16:51:53.231Z,6.90
2023-12-30T16:54:25.941Z,5.97
2023-12-30T16:56:59.268Z,5.60
2023-12-30T16:59:33.558Z,6.27
2023-12-30T17:02:07.253Z,5.37
2023-12-30T17:04:41.494Z,5.87
2023-12-30T17:07:15.067Z,6.50
2023-12-30T17:09:47.686Z,7.40
2023-12-30T17:12:20.424Z,6.97
2023-12-30T17:14:53.114Z,5.83
2023-12-30T17:17:25.970Z,5.90
2023-12-30T17:20:00.280Z,5.40
2023-12-30T17:22:36.399Z,6.17
2023-12-30T17:25:09.919Z,7.40
2023-12-30T17:27:43.571Z,5.53
2023-12-30T17:30:19.248Z,5.70
2023-12-30T17:32:52.518Z,7.80
2023-12-30T17:35:29.068Z,12.37
2023-12-30T17:38:01.754Z,7.17
2023-12-30T17:40:34.936Z,5.77
2023-12-30T17:43:07.815Z,6.40
2023-12-30T17:45:43.624Z,6.30
2023-12-30T17:48:16.683Z,8.33
2023-12-30T17:50:50.705Z,11.50
2023-12-30T17:53:23.423Z,8.00
2023-12-30T17:55:56.280Z,8.13
2023-12-30T17:58:29.023Z,7.03
2023-12-30T18:01:01.863Z,8.97
2023-12-30T18:03:37.510Z,13.60
2023-12-30T18:06:11.958Z,13.87
2023-12-30T18:08:45.082Z,9.80
2023-12-30T18:11:17.794Z,9.50
2023-12-30T18:13:50.668Z,8.83
2023-12-30T18:16:24.344Z,11.83
2023-12-30T18:18:57.330Z,11.70
2023-12-30T18:21:31.497Z,16.13
2023-12-30T18:24:05.200Z,10.13
2023-12-30T18:26:39.623Z,8.73
2023-12-30T18:29:12.280Z,10.70
2023-12-30T18:31:45.045Z,9.27
2023-12-30T18:34:17.949Z,9.07
2023-12-30T18:36:53.351Z,8.63
2023-12-30T18:39:26.295Z,9.67
2023-12-30T18:41:59.080Z,8.63
2023-12-30T18:44:31.784Z,10.43
2023-12-30T18:47:04.540Z,8.93
2023-12-30T18:49:37.319Z,8.73
2023-12-30T18:52:11.459Z,7.90
2023-12-30T18:54:44.217Z,7.67
2023-12-30T18:57:17.652Z,9.10
2023-12-30T18:59:50.723Z,10.93
2023-12-30T19:02:23.375Z,18.13
2023-12-30T19:04:56.257Z,19.63
2023-12-30T19:07:30.553Z,16.90
2023-12-30T19:10:08.401Z,17.97
2023-12-30T19:12:41.285Z,16.97
2023-12-30T19:15:15.270Z,15.73
2023-12-30T19:17:50.421Z,14.43
2023-12-30T19:20:26.076Z,14.13
2023-12-30T19:23:00.553Z,14.27
2023-12-30T19:25:35.949Z,13.53
2023-12-30T19:28:10.309Z,11.30
2023-12-30T19:30:43.085Z,20.37
2023-12-30T19:33:16.279Z,16.00
2023-12-30T19:35:49.518Z,21.60
2023-12-30T19:38:24.131Z,14.50
2023-12-30T19:40:57.393Z,11.53
2023-12-30T19:43:30.221Z,9.83
2023-12-30T19:46:07.046Z,10.73
2023-12-30T19:48:40.249Z,12.30
2023-12-30T19:51:13.081Z,16.37
2023-12-30T19:53:48.929Z,11.73
2023-12-30T19:56:28.155Z,9.77
2023-12-30T19:59:00.893Z,8.70
2023-12-30T20:01:34.065Z,10.07
2023-12-30T20:04:06.934Z,9.27
2023-12-30T20:06:49.239Z,8.53
2023-12-30T20:09:23.494Z,9.40
2023-12-30T20:11:56.152Z,9.27
2023-12-30T20:14:29.187Z,8.27
2023-12-30T20:17:04.506Z,8.00
2023-12-30T20:19:39.113Z,8.00
2023-12-30T20:22:14.332Z,8.00
2023-12-30T20:24:48.478Z,9.80
2023-12-30T20:27:21.554Z,9.20
2023-12-30T20:29:54.730Z,8.60
2023-12-30T20:32:27.487Z,7.97
2023-12-30T20:35:00.279Z,7.70
2023-12-30T20:37:35.511Z,15.13
2023-12-30T20:40:15.768Z,14.07
2023-12-30T20:42:48.469Z,7.53
2023-12-30T20:45:21.149Z,6.33
2023-12-30T20:47:56.529Z,8.97
2023-12-30T20:50:33.030Z,7.33
2023-12-30T20:53:06.717Z,7.17
2023-12-30T20:55:42.839Z,8.33
2023-12-30T20:58:16.498Z,17.20
2023-12-30T21:00:49.391Z,9.77
2023-12-30T21:03:22.318Z,7.17
2023-12-30T21:05:55.158Z,6.23
2023-12-30T21:08:27.985Z,6.00
2023-12-30T21:11:02.105Z,12.10
2023-12-30T21:13:34.814Z,9.40
2023-12-30T21:16:07.840Z,8.20
2023-12-30T21:18:42.850Z,8.60
2023-12-30T21:21:16.517Z,8.80
2023-12-30T21:23:49.650Z,8.10
2023-12-30T21:26:24.111Z,11.60
2023-12-30T21:28:59.996Z,11.13
2023-12-30T21:31:32.819Z,11.97
2023-12-30T21:34:05.643Z,8.07
2023-12-30T21:36:38.473Z,9.77
2023-12-30T21:39:15.078Z,7.10
2023-12-30T21:41:49.118Z,7.70
2023-12-30T21:44:24.754Z,6.73
2023-12-30T21:46:57.571Z,5.83
2023-12-30T21:49:30.412Z,6.10
2023-12-30T21:52:03.984Z,5.97
2023-12-30T21:54:36.729Z,6.97
2023-12-30T21:57:10.945Z,5.67
2023-12-30T21:59:43.821Z,7.73
2023-12-30T22:02:16.744Z,5.97
2023-12-30T22:04:52.040Z,5.97
2023-12-30T22:07:27.420Z,8.03
2023-12-30T22:10:00.578Z,6.90
2023-12-30T22:12:35.511Z,6.87
2023-12-30T22:15:08.743Z,7.10
2023-12-30T22:17:44.312Z,7.47
2023-12-30T22:20:18.025Z,8.23
2023-12-30T22:22:53.087Z,8.00
2023-12-30T22:25:25.827Z,9.17
2023-12-30T22:27:59.942Z,9.57
2023-12-30T22:30:35.374Z,9.07
2023-12-30T22:33:09.669Z,9.90
2023-12-30T22:35:42.641Z,9.30
2023-12-30T22:38:15.449Z,8.77
2023-12-30T22:40:48.998Z,7.93
2023-12-30T22:43:23.265Z,7.53
2023-12-30T22:45:56.275Z,8.23
2023-12-30T22:48:28.978Z,7.90
2023-12-30T22:51:01.779Z,7.50
2023-12-30T22:53:34.616Z,5.83
2023-12-30T22:56:11.036Z,7.03
2023-12-30T22:58:45.309Z,7.33
2023-12-30T23:01:18.524Z,7.33
2023-12-30T23:03:51.400Z,7.57
2023-12-30T23:06:24.095Z,6.97
2023-12-30T23:08:56.806Z,8.27
2023-12-30T23:11:30.311Z,11.03
2023-12-30T23:14:04.460Z,9.97
2023-12-30T23:16:45.196Z,10.00
2023-12-30T23:19:25.308Z,8.00
2023-12-30T23:21:58.892Z,7.00
2023-12-30T23:24:31.726Z,6.87
2023-12-30T23:27:04.450Z,6.70
2023-12-30T23:29:39.530Z,7.67
2023-12-30T23:32:14.087Z,7.03
2023-12-30T23:34:50.142Z,6.60
2023-12-30T23:37:25.186Z,7.63
2023-12-30T23:39:59.961Z,8.23
2023-12-30T23:42:32.716Z,7.27
2023-12-30T23:45:09.959Z,6.43
2023-12-30T23:47:45.450Z,7.03
2023-12-30T23:50:20.649Z,6.43
2023-12-30T23:52:53.706Z,7.00
2023-12-30T23:55:28.624Z,7.03
2023-12-30T23:58:01.353Z,8.87
